createdAt,value
2019-03-06T00:00:30.925Z,17.20
2019-03-06T00:02:56.977Z,18.10
2019-03-06T00:05:22.973Z,18.30
2019-03-06T00:07:49.260Z,16.30
2019-03-06T00:10:22.161Z,15.50
2019-03-06T00:12:48.052Z,17.67
2019-03-06T00:15:14.283Z,17.63
2019-03-06T00:17:40.439Z,16.17
2019-03-06T00:20:06.453Z,17.87
2019-03-06T00:22:32.484Z,17.97
2019-03-06T00:24:58.409Z,16.43
2019-03-06T00:27:24.401Z,15.00
2019-03-06T00:29:50.511Z,15.00
2019-03-06T00:32:16.440Z,16.23
2019-03-06T00:34:42.364Z,19.40
2019-03-06T00:37:08.561Z,14.07
2019-03-06T00:39:36.490Z,15.90
2019-03-06T00:42:02.480Z,13.40
2019-03-06T00:44:28.438Z,16.37
2019-03-06T00:46:54.332Z,14.63
2019-03-06T00:49:20.333Z,16.37
2019-03-06T00:51:46.359Z,14.40
2019-03-06T00:54:12.287Z,14.00
2019-03-06T00:56:38.460Z,14.93
2019-03-06T00:59:04.314Z,17.80
2019-03-06T01:01:30.225Z,18.83
2019-03-06T01:03:56.224Z,16.07
2019-03-06T01:06:22.176Z,15.17
2019-03-06T01:08:48.258Z,18.87
2019-03-06T01:11:14.224Z,17.60
2019-03-06T01:13:40.275Z,16.53
2019-03-06T01:16:06.172Z,15.43
2019-03-06T01:18:32.133Z,15.00
2019-03-06T01:20:57.953Z,17.90
2019-03-06T01:23:24.343Z,13.80
2019-03-06T01:25:50.176Z,13.73
2019-03-06T01:28:16.099Z,14.67
2019-03-06T01:30:42.204Z,15.97
2019-03-06T01:33:15.827Z,14.30
2019-03-06T01:36:02.299Z,15.73
2019-03-06T01:38:42.211Z,16.23
2019-03-06T01:41:10.182Z,15.13
2019-03-06T01:43:46.958Z,14.70
2019-03-06T01:46:12.930Z,13.50
2019-03-06T01:48:38.926Z,16.60
2019-03-06T01:51:04.809Z,16.10
2019-03-06T01:53:30.961Z,14.73
2019-03-06T01:55:56.982Z,12.90
2019-03-06T01:58:23.249Z,12.63
2019-03-06T02:00:49.227Z,14.23
2019-03-06T02:03:15.365Z,15.43
2019-03-06T02:05:41.413Z,14.73
2019-03-06T02:08:08.089Z,13.93
2019-03-06T02:10:34.057Z,13.77
2019-03-06T02:13:00.327Z,13.50
2019-03-06T02:15:26.319Z,15.00
2019-03-06T02:17:52.375Z,13.20
2019-03-06T02:20:18.355Z,13.60
2019-03-06T02:22:44.764Z,13.30
2019-03-06T02:25:11.033Z,17.33
2019-03-06T02:27:36.964Z,12.57
2019-03-06T02:30:09.656Z,13.47
2019-03-06T02:32:35.641Z,13.07
2019-03-06T02:35:01.691Z,14.80
2019-03-06T02:37:27.640Z,14.83
2019-03-06T02:39:53.502Z,11.10
2019-03-06T02:42:19.343Z,14.73
2019-03-06T02:44:45.320Z,13.43
2019-03-06T02:47:11.156Z,13.20
2019-03-06T02:49:37.152Z,15.07
2019-03-06T02:52:03.234Z,14.50
2019-03-06T02:54:29.075Z,12.40
2019-03-06T02:56:55.006Z,13.00
2019-03-06T02:59:22.888Z,12.80
2019-03-06T03:01:50.744Z,12.47
2019-03-06T03:04:18.611Z,12.80
2019-03-06T03:06:49.079Z,12.00
2019-03-06T03:09:16.825Z,10.20
2019-03-06T03:11:42.985Z,12.80
2019-03-06T03:14:09.125Z,13.27
2019-03-06T03:16:34.959Z,16.53
2019-03-06T03:19:01.181Z,12.47
2019-03-06T03:21:27.201Z,13.80
2019-03-06T03:23:53.237Z,12.27
2019-03-06T03:26:19.201Z,11.63
2019-03-06T03:28:45.119Z,14.17
2019-03-06T03:31:11.144Z,11.10
2019-03-06T03:33:40.490Z,12.63
2019-03-06T03:36:06.405Z,11.93
2019-03-06T03:38:32.282Z,15.20
2019-03-06T03:40:58.138Z,11.67
2019-03-06T03:43:24.119Z,11.33
2019-03-06T03:45:50.353Z,11.53
2019-03-06T03:48:16.216Z,12.37
2019-03-06T03:50:42.127Z,13.00
2019-03-06T03:53:07.976Z,11.33
2019-03-06T03:55:33.814Z,13.47
2019-03-06T03:57:59.702Z,11.97
2019-03-06T04:00:25.641Z,11.57
2019-03-06T04:02:51.843Z,13.23
2019-03-06T04:05:17.898Z,11.13
2019-03-06T04:07:43.944Z,12.47
2019-03-06T04:10:13.008Z,13.67
2019-03-06T04:12:39.116Z,10.63
2019-03-06T04:15:08.248Z,12.40
2019-03-06T04:17:34.323Z,11.13
2019-03-06T04:20:00.517Z,12.17
2019-03-06T04:22:26.689Z,10.90
2019-03-06T04:24:52.546Z,11.20
2019-03-06T04:27:18.427Z,10.07
2019-03-06T04:29:44.464Z,12.10
2019-03-06T04:32:10.508Z,10.10
2019-03-06T04:34:36.696Z,10.67
2019-03-06T04:37:02.751Z,11.77
2019-03-06T04:39:28.697Z,12.13
2019-03-06T04:41:54.528Z,10.03
2019-03-06T04:44:20.630Z,12.03
2019-03-06T04:46:46.483Z,11.30
2019-03-06T04:49:12.349Z,12.43
2019-03-06T04:51:38.295Z,11.17
2019-03-06T04:54:04.287Z,11.77
2019-03-06T04:56:30.147Z,10.73
2019-03-06T04:58:55.986Z,12.20
2019-03-06T05:01:21.838Z,12.77
2019-03-06T05:03:47.931Z,11.07
2019-03-06T05:06:14.072Z,11.60
2019-03-06T05:08:40.047Z,13.67
2019-03-06T05:11:06.058Z,12.93
2019-03-06T05:13:31.911Z,12.30
2019-03-06T05:15:57.732Z,12.13
2019-03-06T05:18:28.568Z,11.80
2019-03-06T05:20:54.628Z,12.20
2019-03-06T05:23:20.702Z,10.70
2019-03-06T05:25:46.594Z,13.83
2019-03-06T05:28:12.442Z,12.43
2019-03-06T05:30:38.261Z,12.30
2019-03-06T05:33:13.461Z,11.33
2019-03-06T05:36:04.020Z,12.93
2019-03-06T05:38:36.773Z,17.20
2019-03-06T05:41:02.807Z,12.33
2019-03-06T05:43:28.983Z,15.03
2019-03-06T05:45:55.148Z,14.30
2019-03-06T05:48:21.253Z,14.53
2019-03-06T05:50:47.306Z,17.43
2019-03-06T05:53:13.540Z,11.60
2019-03-06T05:55:39.399Z,12.73
2019-03-06T05:58:05.626Z,12.03
2019-03-06T06:00:31.506Z,14.60
2019-03-06T06:02:57.453Z,13.90
2019-03-06T06:05:23.403Z,13.07
2019-03-06T06:07:49.393Z,11.47
2019-03-06T06:10:15.533Z,14.67
2019-03-06T06:12:41.568Z,16.13
2019-03-06T06:15:09.449Z,13.53
2019-03-06T06:17:35.308Z,12.47
2019-03-06T06:20:01.408Z,15.53
2019-03-06T06:22:31.951Z,14.97
2019-03-06T06:24:57.873Z,16.97
2019-03-06T06:27:23.952Z,13.47
2019-03-06T06:29:52.766Z,17.60
2019-03-06T06:32:18.723Z,15.20
2019-03-06T06:34:44.638Z,13.97
2019-03-06T06:37:13.886Z,14.63
2019-03-06T06:39:39.857Z,16.60
2019-03-06T06:42:06.077Z,17.07
2019-03-06T06:44:32.055Z,17.33
2019-03-06T06:46:58.073Z,18.67
2019-03-06T06:49:24.027Z,16.67
2019-03-06T06:52:05.240Z,15.10
2019-03-06T06:54:38.231Z,17.30
2019-03-06T06:57:23.097Z,15.60
2019-03-06T07:00:07.867Z,16.93
2019-03-06T07:03:14.528Z,14.57
2019-03-06T07:05:45.216Z,22.77
2019-03-06T07:08:15.924Z,16.07
2019-03-06T07:10:52.718Z,14.83
2019-03-06T07:13:20.697Z,23.10
2019-03-06T07:15:54.416Z,14.07
2019-03-06T07:18:22.269Z,20.10
2019-03-06T07:20:55.846Z,24.27
2019-03-06T07:23:26.719Z,18.10
2019-03-06T07:26:09.518Z,16.13
2019-03-06T07:28:43.370Z,16.60
2019-03-06T07:31:17.452Z,21.50
2019-03-06T07:33:47.952Z,17.57
2019-03-06T07:36:32.490Z,18.33
2019-03-06T07:38:58.484Z,19.93
2019-03-06T07:41:28.946Z,19.60
2019-03-06T07:44:14.991Z,14.87
2019-03-06T07:46:48.541Z,19.63
2019-03-06T07:49:25.202Z,17.00
2019-03-06T07:52:05.048Z,16.90
2019-03-06T07:54:32.785Z,19.23
2019-03-06T07:57:12.646Z,16.30
2019-03-06T07:59:38.691Z,19.40
2019-03-06T08:02:23.844Z,16.85
2019-03-06T08:04:52.114Z,15.77
2019-03-06T08:07:17.947Z,16.73
2019-03-06T08:09:43.991Z,20.30
2019-03-06T08:12:28.581Z,17.57
2019-03-06T08:15:13.177Z,24.47
2019-03-06T08:17:44.116Z,19.77
2019-03-06T08:20:28.468Z,16.70
2019-03-06T08:23:02.204Z,20.17
2019-03-06T08:25:42.418Z,33.57
2019-03-06T08:28:08.413Z,20.23
2019-03-06T08:30:39.192Z,19.13
2019-03-06T08:33:05.161Z,24.17
2019-03-06T08:35:31.899Z,23.63
2019-03-06T08:37:57.740Z,24.13
2019-03-06T08:40:27.742Z,24.57
2019-03-06T08:42:53.697Z,24.97
2019-03-06T08:45:24.287Z,28.13
2019-03-06T08:48:07.416Z,26.13
2019-03-06T08:50:35.237Z,29.63
2019-03-06T08:53:14.957Z,35.80
2019-03-06T08:55:42.939Z,33.57
2019-03-06T08:58:27.862Z,39.47
2019-03-06T09:00:58.549Z,31.63
2019-03-06T09:03:29.919Z,38.90
2019-03-06T09:06:00.490Z,39.33
2019-03-06T09:08:34.069Z,44.33
2019-03-06T09:11:03.059Z,37.87
2019-03-06T09:13:37.514Z,43.07
2019-03-06T09:16:05.290Z,44.93
2019-03-06T09:18:33.119Z,46.23
2019-03-06T09:21:00.975Z,44.77
2019-03-06T09:23:31.468Z,48.73
2019-03-06T09:26:05.358Z,57.73
2019-03-06T09:28:33.489Z,52.83
2019-03-06T09:31:04.310Z,50.00
2019-03-06T09:33:32.138Z,51.10
2019-03-06T09:36:06.401Z,55.00
2019-03-06T09:38:42.973Z,55.10
2019-03-06T09:41:10.986Z,54.07
2019-03-06T09:43:44.553Z,48.63
2019-03-06T09:46:21.183Z,51.50
2019-03-06T09:49:11.153Z,58.53
2019-03-06T09:51:36.975Z,55.17
2019-03-06T09:54:11.607Z,56.23
2019-03-06T09:56:39.533Z,52.40
2019-03-06T09:59:07.507Z,55.00
2019-03-06T10:01:40.060Z,54.00
2019-03-06T10:04:19.763Z,55.93
2019-03-06T10:06:47.928Z,52.40
2019-03-06T10:09:31.982Z,53.33
2019-03-06T10:12:09.839Z,54.87
2019-03-06T10:14:46.644Z,58.57
2019-03-06T10:17:31.022Z,55.80
2019-03-06T10:20:01.528Z,50.90
2019-03-06T10:22:27.372Z,58.90
2019-03-06T10:24:53.403Z,53.40
2019-03-06T10:27:19.445Z,57.13
2019-03-06T10:29:45.494Z,57.70
2019-03-06T10:32:11.624Z,57.73
2019-03-06T10:34:37.606Z,60.63
2019-03-06T10:39:29.404Z,53.73
2019-03-06T10:41:55.303Z,52.33
2019-03-06T10:44:28.770Z,57.63
2019-03-06T10:46:49.111Z,58.10
2019-03-06T10:49:15.108Z,58.53
2019-03-06T10:51:41.078Z,55.77
2019-03-06T10:54:07.110Z,55.03
2019-03-06T10:56:33.289Z,54.07
2019-03-06T10:58:59.826Z,53.27
2019-03-06T11:01:26.089Z,55.00
2019-03-06T11:04:05.868Z,59.77
2019-03-06T11:06:32.013Z,54.23
2019-03-06T11:08:57.986Z,53.60
2019-03-06T11:11:24.062Z,48.90
2019-03-06T11:13:50.312Z,50.27
2019-03-06T11:16:17.925Z,51.43
2019-03-06T11:18:44.294Z,50.37
2019-03-06T11:21:10.396Z,52.03
2019-03-06T11:23:36.341Z,53.40
2019-03-06T11:26:05.273Z,57.97
2019-03-06T11:28:31.458Z,56.30
2019-03-06T11:30:58.824Z,51.60
2019-03-06T11:33:25.383Z,52.93
2019-03-06T11:35:55.401Z,51.97
2019-03-06T11:38:21.820Z,47.03
2019-03-06T11:40:47.866Z,49.67
2019-03-06T11:43:13.952Z,46.73
2019-03-06T11:45:40.613Z,49.83
2019-03-06T11:48:07.362Z,51.03
2019-03-06T11:50:40.636Z,49.83
2019-03-06T11:53:01.312Z,49.67
2019-03-06T11:55:27.812Z,50.67
2019-03-06T11:57:53.915Z,50.80
2019-03-06T12:00:29.599Z,49.83
2019-03-06T12:02:55.473Z,48.60
2019-03-06T12:05:22.306Z,46.40
2019-03-06T12:07:48.610Z,49.03
2019-03-06T12:10:14.946Z,44.67
2019-03-06T12:12:40.897Z,51.33
2019-03-06T12:15:09.453Z,49.50
2019-03-06T12:17:35.588Z,47.30
2019-03-06T12:20:08.210Z,46.90
2019-03-06T12:22:29.574Z,48.43
2019-03-06T12:24:55.552Z,40.63
2019-03-06T12:27:21.493Z,42.43
2019-03-06T12:29:47.527Z,42.53
2019-03-06T12:32:13.549Z,47.10
2019-03-06T12:34:39.579Z,45.73
2019-03-06T12:37:05.624Z,42.13
2019-03-06T12:39:31.618Z,50.17
2019-03-06T12:41:58.917Z,40.67
2019-03-06T12:44:25.035Z,39.03
2019-03-06T12:46:51.017Z,26.52
2019-03-06T12:49:17.130Z,28.50
2019-03-06T12:51:43.066Z,25.30
2019-03-06T12:54:09.126Z,26.35
2019-03-06T12:56:35.314Z,30.23
2019-03-06T12:59:01.254Z,32.13
2019-03-06T13:01:27.208Z,31.93
2019-03-06T13:03:53.181Z,38.53
2019-03-06T13:06:24.504Z,34.38
2019-03-06T13:08:50.779Z,31.23
2019-03-06T13:11:15.600Z,30.97
2019-03-06T13:13:41.548Z,31.48
2019-03-06T13:16:07.716Z,29.80
2019-03-06T13:18:33.651Z,26.40
2019-03-06T13:20:59.628Z,25.05
2019-03-06T13:23:25.741Z,24.87
2019-03-06T13:25:51.874Z,24.60
2019-03-06T13:28:17.959Z,22.85
2019-03-06T13:30:43.949Z,28.73
2019-03-06T13:33:13.699Z,23.87
2019-03-06T13:35:40.295Z,25.40
2019-03-06T13:38:06.362Z,24.45
2019-03-06T13:40:32.404Z,25.12
2019-03-06T13:42:58.636Z,26.85
2019-03-06T13:45:24.680Z,26.52
2019-03-06T13:47:51.142Z,25.43
2019-03-06T13:50:17.265Z,28.12
2019-03-06T13:52:43.207Z,30.17
2019-03-06T13:55:10.720Z,28.12
2019-03-06T13:57:36.653Z,24.32
2019-03-06T14:00:18.000Z,29.00
2019-03-06T14:02:45.878Z,32.00
2019-03-06T14:05:13.245Z,29.17
2019-03-06T14:07:39.236Z,31.47
2019-03-06T14:10:07.490Z,30.53
2019-03-06T14:12:33.550Z,29.13
2019-03-06T14:14:59.578Z,32.40
2019-03-06T14:17:25.726Z,31.90
2019-03-06T14:19:51.887Z,30.67
2019-03-06T14:22:18.970Z,30.57
2019-03-06T14:24:44.991Z,33.10
2019-03-06T14:27:11.343Z,32.43
2019-03-06T14:29:37.383Z,31.63
2019-03-06T14:32:03.594Z,36.10
2019-03-06T14:34:29.434Z,35.23
2019-03-06T14:36:56.008Z,35.90
2019-03-06T14:39:24.594Z,33.80
2019-03-06T14:41:50.760Z,35.33
2019-03-06T14:44:16.853Z,32.60
2019-03-06T14:46:46.652Z,36.67
2019-03-06T14:49:12.722Z,33.90
2019-03-06T14:51:38.575Z,41.70
2019-03-06T14:54:05.624Z,37.60
2019-03-06T14:56:32.075Z,35.93
2019-03-06T14:58:57.925Z,34.97
2019-03-06T15:01:23.860Z,43.30
2019-03-06T15:03:49.786Z,37.67
2019-03-06T15:06:15.732Z,40.50
2019-03-06T15:08:41.798Z,43.07
2019-03-06T15:11:07.815Z,41.07
2019-03-06T15:13:34.299Z,52.33
2019-03-06T15:16:00.333Z,46.13
2019-03-06T15:18:26.366Z,39.23
2019-03-06T15:20:52.233Z,39.50
2019-03-06T15:23:18.272Z,41.63
2019-03-06T15:25:44.219Z,43.73
2019-03-06T15:28:10.306Z,44.63
2019-03-06T15:30:36.518Z,44.93
2019-03-06T15:33:02.696Z,59.17
2019-03-06T15:35:28.734Z,44.73
2019-03-06T15:37:54.897Z,46.43
2019-03-06T15:40:24.138Z,49.90
2019-03-06T15:42:50.555Z,48.77
2019-03-06T15:45:18.093Z,39.30
2019-03-06T15:47:44.355Z,47.33
2019-03-06T15:50:12.544Z,41.57
2019-03-06T15:52:39.186Z,43.17
2019-03-06T15:55:08.871Z,46.87
2019-03-06T15:57:34.890Z,48.50
2019-03-06T16:00:01.272Z,47.03
2019-03-06T16:02:27.451Z,43.23
2019-03-06T16:04:53.513Z,44.33
2019-03-06T16:07:19.777Z,49.07
2019-03-06T16:09:45.867Z,43.37
2019-03-06T16:12:12.400Z,48.13
2019-03-06T16:14:39.047Z,45.80
2019-03-06T16:17:05.159Z,56.03
2019-03-06T16:19:31.035Z,47.17
2019-03-06T16:21:56.904Z,41.90
2019-03-06T16:24:23.260Z,42.67
2019-03-06T16:26:49.186Z,42.53
2019-03-06T16:29:15.393Z,40.70
2019-03-06T16:31:41.810Z,42.27
2019-03-06T16:34:07.885Z,44.40
2019-03-06T16:36:34.024Z,43.73
2019-03-06T16:39:00.105Z,49.73
2019-03-06T16:41:26.416Z,42.03
2019-03-06T16:43:52.861Z,50.03
2019-03-06T16:46:19.247Z,45.47
2019-03-06T16:48:45.684Z,42.37
2019-03-06T16:51:11.875Z,52.40
2019-03-06T16:53:38.150Z,52.37
2019-03-06T16:56:04.340Z,49.60
2019-03-06T16:58:30.582Z,47.67
2019-03-06T17:00:59.757Z,48.53
2019-03-06T17:03:25.749Z,51.53
2019-03-06T17:05:52.024Z,50.40
2019-03-06T17:08:18.204Z,52.57
2019-03-06T17:10:44.300Z,63.70
2019-03-06T17:13:10.368Z,55.97
2019-03-06T17:15:36.477Z,63.27
2019-03-06T17:18:03.030Z,55.70
2019-03-06T17:20:35.767Z,56.13
2019-03-06T17:23:02.168Z,62.03
2019-03-06T17:25:28.513Z,57.53
2019-03-06T17:27:54.582Z,58.87
2019-03-06T17:30:26.472Z,59.87
2019-03-06T17:33:02.802Z,59.27
2019-03-06T17:35:30.686Z,57.97
2019-03-06T17:37:56.851Z,52.33
2019-03-06T17:40:23.191Z,50.40
2019-03-06T17:42:49.334Z,48.37
2019-03-06T17:45:15.872Z,51.33
2019-03-06T17:47:41.901Z,50.03
2019-03-06T17:50:11.862Z,47.23
2019-03-06T17:52:37.803Z,46.80
2019-03-06T17:55:05.415Z,48.90
2019-03-06T17:57:31.307Z,46.57
2019-03-06T17:59:57.281Z,47.30
2019-03-06T18:02:26.395Z,57.00
2019-03-06T18:04:52.415Z,48.67
2019-03-06T18:07:18.437Z,50.38
2019-03-06T18:09:44.646Z,46.47
2019-03-06T18:12:10.624Z,47.60
2019-03-06T18:14:36.672Z,43.90
2019-03-06T18:17:02.730Z,44.50
2019-03-06T18:19:28.735Z,43.53
2019-03-06T18:21:54.841Z,41.83
2019-03-06T18:24:20.810Z,42.40
2019-03-06T18:26:46.893Z,42.70
2019-03-06T18:29:13.278Z,49.80
2019-03-06T18:31:39.246Z,42.20
2019-03-06T18:34:05.338Z,44.07
2019-03-06T18:36:31.542Z,40.50
2019-03-06T18:38:57.380Z,47.53
2019-03-06T18:41:23.370Z,43.57
2019-03-06T18:43:49.379Z,42.63
2019-03-06T18:46:15.362Z,41.50
2019-03-06T18:48:41.234Z,41.97
2019-03-06T18:51:11.103Z,44.47
2019-03-06T18:53:37.214Z,41.27
2019-03-06T18:56:03.335Z,44.23
2019-03-06T18:58:29.359Z,41.33
2019-03-06T19:00:55.416Z,48.73
2019-03-06T19:03:21.550Z,40.03
2019-03-06T19:05:47.663Z,44.13
2019-03-06T19:08:13.721Z,48.93
2019-03-06T19:10:39.780Z,48.83
2019-03-06T19:13:05.905Z,50.60
2019-03-06T19:15:34.695Z,42.93
2019-03-06T19:18:00.915Z,49.03
2019-03-06T19:20:27.101Z,46.63
2019-03-06T19:22:53.439Z,47.20
2019-03-06T19:25:19.737Z,46.43
2019-03-06T19:27:46.029Z,52.70
2019-03-06T19:30:17.045Z,49.17
2019-03-06T19:32:43.109Z,47.07
2019-03-06T19:35:09.279Z,51.17
2019-03-06T19:37:35.171Z,52.50
2019-03-06T19:40:01.325Z,52.10
2019-03-06T19:42:27.289Z,55.33
2019-03-06T19:44:54.112Z,49.90
2019-03-06T19:47:20.358Z,55.33
2019-03-06T19:49:46.509Z,53.20
2019-03-06T19:52:12.777Z,49.27
2019-03-06T19:54:38.626Z,52.50
2019-03-06T19:57:05.020Z,51.50
2019-03-06T19:59:30.916Z,50.73
2019-03-06T20:01:56.978Z,52.03
2019-03-06T20:04:23.190Z,48.80
2019-03-06T20:06:49.420Z,53.03
2019-03-06T20:09:21.411Z,57.77
2019-03-06T20:11:47.555Z,55.40
2019-03-06T20:14:13.509Z,59.63
2019-03-06T20:16:39.443Z,65.73
2019-03-06T20:19:05.567Z,58.83
2019-03-06T20:21:31.554Z,51.07
2019-03-06T20:23:57.460Z,63.50
2019-03-06T20:26:23.726Z,56.63
2019-03-06T20:28:50.065Z,58.87
2019-03-06T20:31:16.279Z,57.23
2019-03-06T20:33:42.408Z,57.87
2019-03-06T20:36:08.751Z,58.20
2019-03-06T20:38:35.109Z,56.73
2019-03-06T20:41:01.374Z,54.40
2019-03-06T20:43:27.935Z,51.33
2019-03-06T20:45:54.585Z,52.60
2019-03-06T20:48:21.234Z,55.77
2019-03-06T20:50:48.005Z,58.60
2019-03-06T20:53:14.746Z,64.27
2019-03-06T20:55:41.461Z,54.20
2019-03-06T20:58:08.469Z,55.63
2019-03-06T21:00:35.469Z,50.47
2019-03-06T21:03:02.553Z,61.13
2019-03-06T21:05:29.261Z,54.17
2019-03-06T21:07:56.378Z,52.37
2019-03-06T21:10:23.363Z,55.60
2019-03-06T21:12:50.487Z,54.60
2019-03-06T21:15:18.472Z,57.40
2019-03-06T21:17:45.345Z,54.77
2019-03-06T21:20:13.545Z,59.70
2019-03-06T21:22:40.257Z,57.50
2019-03-06T21:25:09.449Z,55.07
2019-03-06T21:27:36.121Z,56.37
2019-03-06T21:30:05.520Z,58.77
2019-03-06T21:32:31.845Z,56.20
2019-03-06T21:34:58.129Z,62.73
2019-03-06T21:37:24.695Z,59.33
2019-03-06T21:39:51.396Z,68.37
2019-03-06T21:42:17.648Z,54.23
2019-03-06T21:44:43.833Z,58.77
2019-03-06T21:47:09.981Z,59.87
2019-03-06T21:49:36.080Z,57.47
2019-03-06T21:52:02.758Z,59.07
2019-03-06T21:54:28.669Z,58.00
2019-03-06T21:56:54.915Z,64.63
2019-03-06T21:59:22.303Z,54.27
2019-03-06T22:01:48.387Z,57.03
2019-03-06T22:04:14.369Z,58.17
2019-03-06T22:06:40.238Z,60.57
2019-03-06T22:09:10.659Z,68.00
2019-03-06T22:11:36.494Z,61.87
2019-03-06T22:14:02.657Z,67.23
2019-03-06T22:16:28.653Z,71.27
2019-03-06T22:18:54.706Z,61.20
2019-03-06T22:21:20.791Z,67.13
2019-03-06T22:23:46.611Z,66.83
2019-03-06T22:26:12.844Z,65.00
2019-03-06T22:28:39.018Z,60.00
2019-03-06T22:31:04.984Z,63.43
2019-03-06T22:33:30.989Z,53.03
2019-03-06T22:35:58.813Z,66.80
2019-03-06T22:38:24.805Z,64.30
2019-03-06T22:40:50.834Z,51.93
2019-03-06T22:43:16.846Z,55.93
2019-03-06T22:45:42.818Z,56.80
2019-03-06T22:48:08.767Z,59.60
2019-03-06T22:50:34.734Z,53.90
2019-03-06T22:53:00.669Z,59.93
2019-03-06T22:55:29.830Z,58.30
2019-03-06T22:57:55.885Z,53.60
2019-03-06T23:00:32.503Z,53.77
2019-03-06T23:02:58.758Z,59.80
2019-03-06T23:05:26.763Z,53.37
2019-03-06T23:07:52.963Z,50.37
2019-03-06T23:10:19.149Z,58.73
2019-03-06T23:12:45.291Z,58.90
2019-03-06T23:15:11.247Z,64.53
2019-03-06T23:17:37.109Z,59.83
2019-03-06T23:20:05.335Z,57.93
2019-03-06T23:22:31.511Z,58.53
2019-03-06T23:24:57.359Z,57.00
2019-03-06T23:27:23.408Z,53.20
2019-03-06T23:29:49.500Z,54.80
2019-03-06T23:32:15.456Z,51.97
2019-03-06T23:34:41.283Z,63.73
2019-03-06T23:37:07.545Z,51.70
2019-03-06T23:39:33.498Z,54.77
2019-03-06T23:41:59.377Z,51.87
2019-03-06T23:44:25.315Z,51.30
2019-03-06T23:46:51.274Z,53.60
2019-03-06T23:49:17.284Z,55.20
2019-03-06T23:51:45.159Z,56.20
2019-03-06T23:54:10.989Z,59.37
2019-03-06T23:56:37.127Z,55.63
2019-03-06T23:59:03.257Z,53.20
